sensor_id;sensor_type;location;lat;lon;timestamp;P1;durP1;ratioP1;P2;durP2;ratioP2
83194;SDS011;73090;49.282;11.402;2024-01-10T00:02:05;14.85;;;5.75;;
83194;SDS011;73090;49.282;11.402;2024-01-10T00:06:07;12.85;;;7.07;;
83194;SDS011;73090;49.282;11.402;2024-01-10T00:10:09;9.18;;;6.10;;
83194;SDS011;73090;49.282;11.402;2024-01-10T00:14:11;8.90;;;4.25;;
83194;SDS011;73090;49.282;11.402;2024-01-10T00:18:13;16.10;;;5.53;;
83194;SDS011;73090;49.282;11.402;2024-01-10T00:22:15;12.05;;;5.53;;
83194;SDS011;73090;49.282;11.402;2024-01-10T00:26:16;10.82;;;8.75;;
83194;SDS011;73090;49.282;11.402;2024-01-10T00:30:18;15.90;;;8.73;;
83194;SDS011;73090;49.282;11.402;2024-01-10T00:34:20;11.27;;;7.55;;
83194;SDS011;73090;49.282;11.402;2024-01-10T00:38:21;12.52;;;7.72;;
83194;SDS011;73090;49.282;11.402;2024-01-10T00:42:23;10.90;;;8.88;;
83194;SDS011;73090;49.282;11.402;2024-01-10T00:46:24;11.63;;;6.07;;
83194;SDS011;73090;49.282;11.402;2024-01-10T00:50:26;13.77;;;5.25;;
83194;SDS011;73090;49.282;11.402;2024-01-10T00:54:28;11.15;;;6.28;;
83194;SDS011;73090;49.282;11.402;2024-01-10T00:58:29;12.40;;;7.57;;
83194;SDS011;73090;49.282;11.402;2024-01-10T01:02:31;8.40;;;4.68;;
83194;SDS011;73090;49.282;11.402;2024-01-10T01:06:32;17.33;;;5.85;;
83194;SDS011;73090;49.282;11.402;2024-01-10T01:10:34;11.00;;;5.82;;
83194;SDS011;73090;49.282;11.402;2024-01-10T01:14:38;9.40;;;5.57;;
83194;SDS011;73090;49.282;11.402;2024-01-10T01:18:40;13.57;;;6.13;;
83194;SDS011;73090;49.282;11.402;2024-01-10T01:22:43;17.50;;;6.10;;
83194;SDS011;73090;49.282;11.402;2024-01-10T01:26:45;9.85;;;5.38;;
83194;SDS011;73090;49.282;11.402;2024-01-10T01:30:47;9.85;;;7.18;;
83194;SDS011;73090;49.282;11.402;2024-01-10T01:34:48;14.82;;;8.50;;
83194;SDS011;73090;49.282;11.402;2024-01-10T01:38:50;10.70;;;7.22;;
83194;SDS011;73090;49.282;11.402;2024-01-10T01:42:52;14.10;;;7.47;;
83194;SDS011;73090;49.282;11.402;2024-01-10T01:46:55;15.68;;;8.55;;
83194;SDS011;73090;49.282;11.402;2024-01-10T01:50:57;7.95;;;4.32;;
83194;SDS011;73090;49.282;11.402;2024-01-10T01:55:02;9.70;;;7.97;;
83194;SDS011;73090;49.282;11.402;2024-01-10T01:59:04;11.85;;;7.00;;
83194;SDS011;73090;49.282;11.402;2024-01-10T02:03:07;9.77;;;6.80;;
83194;SDS011;73090;49.282;11.402;2024-01-10T02:07:10;5.53;;;5.05;;
83194;SDS011;73090;49.282;11.402;2024-01-10T02:11:12;13.63;;;7.38;;
83194;SDS011;73090;49.282;11.402;2024-01-10T02:15:14;16.90;;;7.60;;
83194;SDS011;73090;49.282;11.402;2024-01-10T02:19:19;10.80;;;5.68;;
83194;SDS011;73090;49.282;11.402;2024-01-10T02:23:24;12.10;;;6.05;;
83194;SDS011;73090;49.282;11.402;2024-01-10T02:27:25;8.55;;;5.88;;
83194;SDS011;73090;49.282;11.402;2024-01-10T02:31:28;6.57;;;3.75;;
83194;SDS011;73090;49.282;11.402;2024-01-10T02:35:29;11.27;;;7.63;;
83194;SDS011;73090;49.282;11.402;2024-01-10T02:39:34;12.02;;;7.55;;
83194;SDS011;73090;49.282;11.402;2024-01-10T02:43:35;14.13;;;8.70;;
83194;SDS011;73090;49.282;11.402;2024-01-10T02:47:37;8.60;;;6.18;;
83194;SDS011;73090;49.282;11.402;2024-01-10T02:51:39;14.60;;;7.22;;
83194;SDS011;73090;49.282;11.402;2024-01-10T02:55:43;14.23;;;7.05;;
83194;SDS011;73090;49.282;11.402;2024-01-10T02:59:44;9.05;;;6.22;;
83194;SDS011;73090;49.282;11.402;2024-01-10T03:03:46;12.50;;;8.40;;
83194;SDS011;73090;49.282;11.402;2024-01-10T03:07:48;11.10;;;7.10;;
83194;SDS011;73090;49.282;11.402;2024-01-10T03:11:49;16.25;;;7.35;;
83194;SDS011;73090;49.282;11.402;2024-01-10T03:15:51;14.32;;;8.57;;
83194;SDS011;73090;49.282;11.402;2024-01-10T03:19:52;8.40;;;6.13;;
83194;SDS011;73090;49.282;11.402;2024-01-10T03:23:57;16.95;;;8.00;;
83194;SDS011;73090;49.282;11.402;2024-01-10T03:27:59;10.30;;;7.20;;
83194;SDS011;73090;49.282;11.402;2024-01-10T03:32:01;11.32;;;8.93;;
83194;SDS011;73090;49.282;11.402;2024-01-10T03:36:03;16.75;;;7.82;;
83194;SDS011;73090;49.282;11.402;2024-01-10T03:40:05;9.27;;;6.82;;
83194;SDS011;73090;49.282;11.402;2024-01-10T03:44:07;12.60;;;8.90;;
83194;SDS011;73090;49.282;11.402;2024-01-10T03:48:09;8.85;;;5.93;;
83194;SDS011;73090;49.282;11.402;2024-01-10T03:52:10;9.77;;;4.60;;
83194;SDS011;73090;49.282;11.402;2024-01-10T03:56:12;13.95;;;7.15;;
83194;SDS011;73090;49.282;11.402;2024-01-10T04:00:14;10.68;;;5.40;;
83194;SDS011;73090;49.282;11.402;2024-01-10T04:04:15;17.60;;;9.85;;
83194;SDS011;73090;49.282;11.402;2024-01-10T04:08:17;14.52;;;8.10;;
83194;SDS011;73090;49.282;11.402;2024-01-10T04:12:19;11.32;;;7.35;;
83194;SDS011;73090;49.282;11.402;2024-01-10T04:16:21;11.82;;;8.77;;
83194;SDS011;73090;49.282;11.402;2024-01-10T04:20:24;13.43;;;7.40;;
83194;SDS011;73090;49.282;11.402;2024-01-10T04:24:26;15.80;;;8.85;;
83194;SDS011;73090;49.282;11.402;2024-01-10T04:28:27;14.45;;;8.30;;
83194;SDS011;73090;49.282;11.402;2024-01-10T04:32:29;12.32;;;10.52;;
83194;SDS011;73090;49.282;11.402;2024-01-10T04:36:31;13.88;;;8.05;;
83194;SDS011;73090;49.282;11.402;2024-01-10T04:40:32;20.92;;;7.78;;
83194;SDS011;73090;49.282;11.402;2024-01-10T04:44:34;11.40;;;7.72;;
83194;SDS011;73090;49.282;11.402;2024-01-10T04:48:36;18.08;;;9.95;;
83194;SDS011;73090;49.282;11.402;2024-01-10T04:52:39;13.15;;;6.07;;
83194;SDS011;73090;49.282;11.402;2024-01-10T04:56:40;11.88;;;8.80;;
83194;SDS011;73090;49.282;11.402;2024-01-10T05:00:42;13.63;;;8.00;;
83194;SDS011;73090;49.282;11.402;2024-01-10T05:04:44;14.35;;;8.95;;
83194;SDS011;73090;49.282;11.402;2024-01-10T05:08:45;12.35;;;6.40;;
83194;SDS011;73090;49.282;11.402;2024-01-10T05:12:47;12.73;;;7.15;;
83194;SDS011;73090;49.282;11.402;2024-01-10T05:16:49;6.93;;;5.60;;
83194;SDS011;73090;49.282;11.402;2024-01-10T05:20:50;22.00;;;8.35;;
83194;SDS011;73090;49.282;11.402;2024-01-10T05:24:52;20.52;;;9.27;;
83194;SDS011;73090;49.282;11.402;2024-01-10T05:28:54;14.85;;;7.18;;
83194;SDS011;73090;49.282;11.402;2024-01-10T05:32:55;17.13;;;7.28;;
83194;SDS011;73090;49.282;11.402;2024-01-10T05:36:57;12.82;;;8.40;;
83194;SDS011;73090;49.282;11.402;2024-01-10T05:40:59;17.88;;;6.55;;
83194;SDS011;73090;49.282;11.402;2024-01-10T05:45:00;14.00;;;8.85;;
83194;SDS011;73090;49.282;11.402;2024-01-10T05:49:03;13.48;;;8.25;;
83194;SDS011;73090;49.282;11.402;2024-01-10T05:53:05;11.93;;;7.40;;
83194;SDS011;73090;49.282;11.402;2024-01-10T05:57:09;12.40;;;7.57;;
83194;SDS011;73090;49.282;11.402;2024-01-10T06:01:11;4.63;;;4.28;;
83194;SDS011;73090;49.282;11.402;2024-01-10T06:05:12;17.08;;;7.95;;
83194;SDS011;73090;49.282;11.402;2024-01-10T06:09:14;19.73;;;9.18;;
83194;SDS011;73090;49.282;11.402;2024-01-10T06:13:16;18.15;;;11.73;;
83194;SDS011;73090;49.282;11.402;2024-01-10T06:17:18;21.95;;;11.68;;
83194;SDS011;73090;49.282;11.402;2024-01-10T06:21:20;15.40;;;8.70;;
83194;SDS011;73090;49.282;11.402;2024-01-10T06:25:22;18.95;;;9.15;;
83194;SDS011;73090;49.282;11.402;2024-01-10T06:29:24;9.45;;;5.13;;
83194;SDS011;73090;49.282;11.402;2024-01-10T06:33:26;10.68;;;4.78;;
83194;SDS011;73090;49.282;11.402;2024-01-10T06:37:28;10.05;;;7.03;;
83194;SDS011;73090;49.282;11.402;2024-01-10T06:41:29;12.73;;;8.05;;
83194;SDS011;73090;49.282;11.402;2024-01-10T06:45:31;12.57;;;7.70;;
83194;SDS011;73090;49.282;11.402;2024-01-10T06:49:33;14.88;;;6.85;;
83194;SDS011;73090;49.282;11.402;2024-01-10T06:53:34;15.75;;;9.00;;
83194;SDS011;73090;49.282;11.402;2024-01-10T06:57:36;5.28;;;4.72;;
83194;SDS011;73090;49.282;11.402;2024-01-10T07:01:38;10.27;;;6.65;;
83194;SDS011;73090;49.282;11.402;2024-01-10T07:05:40;18.92;;;9.80;;
83194;SDS011;73090;49.282;11.402;2024-01-10T07:09:42;9.10;;;3.22;;
83194;SDS011;73090;49.282;11.402;2024-01-10T07:13:44;15.35;;;5.50;;
83194;SDS011;73090;49.282;11.402;2024-01-10T07:17:45;11.73;;;8.48;;
83194;SDS011;73090;49.282;11.402;2024-01-10T07:21:47;3.95;;;3.65;;
83194;SDS011;73090;49.282;11.402;2024-01-10T07:25:49;18.38;;;8.15;;
83194;SDS011;73090;49.282;11.402;2024-01-10T07:29:51;12.50;;;7.82;;
83194;SDS011;73090;49.282;11.402;2024-01-10T07:33:53;8.27;;;7.22;;
83194;SDS011;73090;49.282;11.402;2024-01-10T07:37:56;14.90;;;7.80;;
83194;SDS011;73090;49.282;11.402;2024-01-10T07:41:57;15.55;;;9.38;;
83194;SDS011;73090;49.282;11.402;2024-01-10T07:45:59;12.35;;;8.52;;
83194;SDS011;73090;49.282;11.402;2024-01-10T07:50:11;14.65;;;7.97;;
83194;SDS011;73090;49.282;11.402;2024-01-10T07:54:16;7.95;;;6.95;;
83194;SDS011;73090;49.282;11.402;2024-01-10T07:58:18;15.88;;;9.88;;
83194;SDS011;73090;49.282;11.402;2024-01-10T08:02:19;21.42;;;9.07;;
83194;SDS011;73090;49.282;11.402;2024-01-10T08:06:21;15.63;;;9.25;;
83194;SDS011;73090;49.282;11.402;2024-01-10T08:10:32;13.18;;;6.75;;
83194;SDS011;73090;49.282;11.402;2024-01-10T08:14:37;8.98;;;7.07;;
83194;SDS011;73090;49.282;11.402;2024-01-10T08:18:38;15.00;;;8.40;;
83194;SDS011;73090;49.282;11.402;2024-01-10T08:22:40;11.20;;;6.60;;
83194;SDS011;73090;49.282;11.402;2024-01-10T08:26:42;18.27;;;8.95;;
83194;SDS011;73090;49.282;11.402;2024-01-10T08:30:44;17.98;;;9.73;;
83194;SDS011;73090;49.282;11.402;2024-01-10T08:34:45;6.07;;;3.75;;
83194;SDS011;73090;49.282;11.402;2024-01-10T08:38:47;13.43;;;9.48;;
83194;SDS011;73090;49.282;11.402;2024-01-10T08:42:50;19.50;;;9.98;;
83194;SDS011;73090;49.282;11.402;2024-01-10T08:46:51;12.38;;;6.78;;
83194;SDS011;73090;49.282;11.402;2024-01-10T08:50:54;19.23;;;10.27;;
83194;SDS011;73090;49.282;11.402;2024-01-10T08:54:57;15.95;;;8.65;;
83194;SDS011;73090;49.282;11.402;2024-01-10T08:58:59;12.98;;;8.65;;
83194;SDS011;73090;49.282;11.402;2024-01-10T09:03:03;18.30;;;9.40;;
83194;SDS011;73090;49.282;11.402;2024-01-10T09:07:06;12.13;;;9.18;;
83194;SDS011;73090;49.282;11.402;2024-01-10T09:11:08;14.52;;;8.48;;
83194;SDS011;73090;49.282;11.402;2024-01-10T09:15:10;15.35;;;9.57;;
83194;SDS011;73090;49.282;11.402;2024-01-10T09:19:14;12.93;;;7.88;;
83194;SDS011;73090;49.282;11.402;2024-01-10T09:23:16;19.33;;;8.02;;
83194;SDS011;73090;49.282;11.402;2024-01-10T09:27:18;19.02;;;8.38;;
83194;SDS011;73090;49.282;11.402;2024-01-10T09:31:20;12.20;;;7.75;;
83194;SDS011;73090;49.282;11.402;2024-01-10T09:35:22;18.02;;;9.15;;
83194;SDS011;73090;49.282;11.402;2024-01-10T09:39:24;22.58;;;10.05;;
83194;SDS011;73090;49.282;11.402;2024-01-10T09:43:25;22.45;;;7.45;;
83194;SDS011;73090;49.282;11.402;2024-01-10T09:47:27;13.40;;;9.43;;
83194;SDS011;73090;49.282;11.402;2024-01-10T09:51:29;15.80;;;9.05;;
83194;SDS011;73090;49.282;11.402;2024-01-10T09:55:34;15.70;;;9.68;;
83194;SDS011;73090;49.282;11.402;2024-01-10T09:59:38;12.45;;;6.70;;
83194;SDS011;73090;49.282;11.402;2024-01-10T10:03:40;19.38;;;8.90;;
83194;SDS011;73090;49.282;11.402;2024-01-10T10:07:47;15.43;;;9.10;;
83194;SDS011;73090;49.282;11.402;2024-01-10T10:11:54;13.45;;;7.97;;
83194;SDS011;73090;49.282;11.402;2024-01-10T10:20:04;17.33;;;10.10;;
83194;SDS011;73090;49.282;11.402;2024-01-10T10:24:06;18.40;;;8.50;;
83194;SDS011;73090;49.282;11.402;2024-01-10T10:28:11;17.33;;;8.40;;
83194;SDS011;73090;49.282;11.402;2024-01-10T10:32:29;19.20;;;9.90;;
83194;SDS011;73090;49.282;11.402;2024-01-10T10:36:31;23.65;;;12.75;;
83194;SDS011;73090;49.282;11.402;2024-01-10T10:40:33;28.52;;;13.65;;
83194;SDS011;73090;49.282;11.402;2024-01-10T10:44:35;16.27;;;10.85;;
83194;SDS011;73090;49.282;11.402;2024-01-10T10:48:42;7.07;;;5.72;;
83194;SDS011;73090;49.282;11.402;2024-01-10T10:52:45;21.02;;;11.27;;
83194;SDS011;73090;49.282;11.402;2024-01-10T10:56:50;15.20;;;8.13;;
83194;SDS011;73090;49.282;11.402;2024-01-10T11:00:55;23.48;;;9.15;;
83194;SDS011;73090;49.282;11.402;2024-01-10T11:04:58;16.33;;;8.30;;
83194;SDS011;73090;49.282;11.402;2024-01-10T11:09:04;15.50;;;8.98;;
83194;SDS011;73090;49.282;11.402;2024-01-10T11:26:23;22.70;;;10.85;;
83194;SDS011;73090;49.282;11.402;2024-01-10T11:30:30;17.63;;;8.32;;
83194;SDS011;73090;49.282;11.402;2024-01-10T11:38:57;19.30;;;9.98;;
83194;SDS011;73090;49.282;11.402;2024-01-10T11:43:03;23.33;;;12.18;;
83194;SDS011;73090;49.282;11.402;2024-01-10T11:47:05;20.33;;;10.52;;
83194;SDS011;73090;49.282;11.402;2024-01-10T11:51:07;20.85;;;10.40;;
83194;SDS011;73090;49.282;11.402;2024-01-10T11:55:09;17.67;;;8.90;;
83194;SDS011;73090;49.282;11.402;2024-01-10T11:59:55;11.90;;;6.95;;
83194;SDS011;73090;49.282;11.402;2024-01-10T12:03:57;20.75;;;9.90;;
83194;SDS011;73090;49.282;11.402;2024-01-10T12:08:15;12.85;;;9.05;;
83194;SDS011;73090;49.282;11.402;2024-01-10T12:12:16;18.83;;;9.73;;
83194;SDS011;73090;49.282;11.402;2024-01-10T12:16:18;14.48;;;7.28;;
83194;SDS011;73090;49.282;11.402;2024-01-10T12:20:20;20.73;;;9.23;;
83194;SDS011;73090;49.282;11.402;2024-01-10T12:24:22;13.90;;;8.75;;
83194;SDS011;73090;49.282;11.402;2024-01-10T12:28:23;17.00;;;7.63;;
83194;SDS011;73090;49.282;11.402;2024-01-10T12:32:26;13.82;;;9.30;;
83194;SDS011;73090;49.282;11.402;2024-01-10T12:36:27;16.05;;;8.45;;
83194;SDS011;73090;49.282;11.402;2024-01-10T12:40:29;18.27;;;10.68;;
83194;SDS011;73090;49.282;11.402;2024-01-10T12:44:33;21.45;;;9.07;;
83194;SDS011;73090;49.282;11.402;2024-01-10T12:48:35;17.73;;;11.07;;
83194;SDS011;73090;49.282;11.402;2024-01-10T12:52:39;15.15;;;9.13;;
83194;SDS011;73090;49.282;11.402;2024-01-10T12:56:43;17.25;;;9.70;;
83194;SDS011;73090;49.282;11.402;2024-01-10T13:00:46;10.35;;;8.05;;
83194;SDS011;73090;49.282;11.402;2024-01-10T13:04:48;13.73;;;8.05;;
83194;SDS011;73090;49.282;11.402;2024-01-10T13:08:50;17.85;;;10.50;;
83194;SDS011;73090;49.282;11.402;2024-01-10T13:12:52;14.25;;;7.25;;
83194;SDS011;73090;49.282;11.402;2024-01-10T13:16:55;18.08;;;9.57;;
83194;SDS011;73090;49.282;11.402;2024-01-10T13:21:00;15.90;;;8.43;;
83194;SDS011;73090;49.282;11.402;2024-01-10T13:25:02;17.10;;;9.63;;
83194;SDS011;73090;49.282;11.402;2024-01-10T13:29:05;17.35;;;10.27;;
83194;SDS011;73090;49.282;11.402;2024-01-10T13:33:07;14.30;;;7.13;;
83194;SDS011;73090;49.282;11.402;2024-01-10T13:37:10;25.15;;;11.85;;
83194;SDS011;73090;49.282;11.402;2024-01-10T13:41:13;16.38;;;7.65;;
83194;SDS011;73090;49.282;11.402;2024-01-10T13:45:15;15.68;;;7.38;;
83194;SDS011;73090;49.282;11.402;2024-01-10T13:49:18;15.82;;;6.80;;
83194;SDS011;73090;49.282;11.402;2024-01-10T13:53:21;11.60;;;6.20;;
83194;SDS011;73090;49.282;11.402;2024-01-10T13:57:23;15.00;;;8.13;;
83194;SDS011;73090;49.282;11.402;2024-01-10T14:01:25;17.38;;;9.82;;
83194;SDS011;73090;49.282;11.402;2024-01-10T14:05:27;19.85;;;11.43;;
83194;SDS011;73090;49.282;11.402;2024-01-10T14:09:30;18.30;;;9.63;;
83194;SDS011;73090;49.282;11.402;2024-01-10T14:13:33;17.88;;;9.82;;
83194;SDS011;73090;49.282;11.402;2024-01-10T14:17:36;12.68;;;8.30;;
83194;SDS011;73090;49.282;11.402;2024-01-10T14:21:38;13.10;;;8.45;;
83194;SDS011;73090;49.282;11.402;2024-01-10T14:25:39;17.55;;;7.00;;
83194;SDS011;73090;49.282;11.402;2024-01-10T14:29:41;14.68;;;7.05;;
83194;SDS011;73090;49.282;11.402;2024-01-10T14:33:43;17.45;;;7.50;;
83194;SDS011;73090;49.282;11.402;2024-01-10T14:37:45;16.33;;;9.00;;
83194;SDS011;73090;49.282;11.402;2024-01-10T14:41:46;15.20;;;9.65;;
83194;SDS011;73090;49.282;11.402;2024-01-10T14:45:48;13.43;;;8.05;;
83194;SDS011;73090;49.282;11.402;2024-01-10T14:49:50;14.77;;;8.45;;
83194;SDS011;73090;49.282;11.402;2024-01-10T14:53:51;17.50;;;8.25;;
83194;SDS011;73090;49.282;11.402;2024-01-10T14:57:54;16.60;;;8.75;;
83194;SDS011;73090;49.282;11.402;2024-01-10T15:01:56;17.65;;;8.45;;
83194;SDS011;73090;49.282;11.402;2024-01-10T15:05:57;17.95;;;10.05;;
83194;SDS011;73090;49.282;11.402;2024-01-10T15:09:59;13.80;;;7.70;;
83194;SDS011;73090;49.282;11.402;2024-01-10T15:14:04;17.05;;;9.07;;
83194;SDS011;73090;49.282;11.402;2024-01-10T15:18:06;16.38;;;7.60;;
83194;SDS011;73090;49.282;11.402;2024-01-10T15:22:08;19.85;;;9.35;;
83194;SDS011;73090;49.282;11.402;2024-01-10T15:26:15;15.52;;;9.23;;
83194;SDS011;73090;49.282;11.402;2024-01-10T15:30:19;17.83;;;11.55;;
83194;SDS011;73090;49.282;11.402;2024-01-10T15:34:29;17.00;;;8.82;;
83194;SDS011;73090;49.282;11.402;2024-01-10T15:38:31;18.85;;;10.38;;
83194;SDS011;73090;49.282;11.402;2024-01-10T15:42:33;16.50;;;9.63;;
83194;SDS011;73090;49.282;11.402;2024-01-10T15:46:35;15.32;;;9.50;;
83194;SDS011;73090;49.282;11.402;2024-01-10T15:50:37;15.00;;;8.35;;
83194;SDS011;73090;49.282;11.402;2024-01-10T15:54:39;15.30;;;7.22;;
83194;SDS011;73090;49.282;11.402;2024-01-10T15:58:41;13.27;;;7.90;;
83194;SDS011;73090;49.282;11.402;2024-01-10T16:02:42;15.35;;;10.00;;
83194;SDS011;73090;49.282;11.402;2024-01-10T16:06:44;15.80;;;8.20;;
83194;SDS011;73090;49.282;11.402;2024-01-10T16:10:45;16.60;;;9.07;;
83194;SDS011;73090;49.282;11.402;2024-01-10T16:14:47;12.40;;;8.20;;
83194;SDS011;73090;49.282;11.402;2024-01-10T16:18:49;13.73;;;7.25;;
83194;SDS011;73090;49.282;11.402;2024-01-10T16:22:51;13.48;;;8.38;;
83194;SDS011;73090;49.282;11.402;2024-01-10T16:26:53;20.35;;;11.80;;
83194;SDS011;73090;49.282;11.402;2024-01-10T16:30:55;20.23;;;9.60;;
83194;SDS011;73090;49.282;11.402;2024-01-10T16:34:57;18.48;;;10.48;;
83194;SDS011;73090;49.282;11.402;2024-01-10T16:38:59;11.48;;;7.35;;
83194;SDS011;73090;49.282;11.402;2024-01-10T16:43:01;18.23;;;9.88;;
83194;SDS011;73090;49.282;11.402;2024-01-10T16:47:02;19.15;;;11.02;;
83194;SDS011;73090;49.282;11.402;2024-01-10T16:51:05;17.88;;;9.30;;
83194;SDS011;73090;49.282;11.402;2024-01-10T16:55:07;12.40;;;7.45;;
83194;SDS011;73090;49.282;11.402;2024-01-10T16:59:09;13.88;;;9.55;;
83194;SDS011;73090;49.282;11.402;2024-01-10T17:03:11;18.17;;;8.68;;
83194;SDS011;73090;49.282;11.402;2024-01-10T17:07:13;25.13;;;9.32;;
83194;SDS011;73090;49.282;11.402;2024-01-10T17:11:14;19.52;;;8.65;;
83194;SDS011;73090;49.282;11.402;2024-01-10T17:15:18;14.65;;;9.73;;
83194;SDS011;73090;49.282;11.402;2024-01-10T17:19:19;15.05;;;8.05;;
83194;SDS011;73090;49.282;11.402;2024-01-10T17:23:21;16.73;;;9.90;;
83194;SDS011;73090;49.282;11.402;2024-01-10T17:27:23;19.77;;;10.55;;
83194;SDS011;73090;49.282;11.402;2024-01-10T17:31:25;15.05;;;8.40;;
83194;SDS011;73090;49.282;11.402;2024-01-10T17:35:26;15.18;;;8.43;;
83194;SDS011;73090;49.282;11.402;2024-01-10T17:39:28;13.95;;;8.13;;
83194;SDS011;73090;49.282;11.402;2024-01-10T17:43:30;15.52;;;8.27;;
83194;SDS011;73090;49.282;11.402;2024-01-10T17:47:32;12.43;;;8.38;;
83194;SDS011;73090;49.282;11.402;2024-01-10T17:51:34;15.05;;;9.55;;
83194;SDS011;73090;49.282;11.402;2024-01-10T17:55:36;17.75;;;10.00;;
83194;SDS011;73090;49.282;11.402;2024-01-10T17:59:37;19.58;;;9.80;;
83194;SDS011;73090;49.282;11.402;2024-01-10T18:03:39;10.88;;;7.00;;
83194;SDS011;73090;49.282;11.402;2024-01-10T18:07:41;19.42;;;11.02;;
83194;SDS011;73090;49.282;11.402;2024-01-10T18:11:43;15.18;;;9.07;;
83194;SDS011;73090;49.282;11.402;2024-01-10T18:15:45;14.43;;;9.50;;
83194;SDS011;73090;49.282;11.402;2024-01-10T18:19:47;20.90;;;12.15;;
83194;SDS011;73090;49.282;11.402;2024-01-10T18:23:49;17.88;;;9.85;;
83194;SDS011;73090;49.282;11.402;2024-01-10T18:27:50;20.05;;;10.68;;
83194;SDS011;73090;49.282;11.402;2024-01-10T18:31:52;17.60;;;10.55;;
83194;SDS011;73090;49.282;11.402;2024-01-10T18:35:54;23.95;;;11.70;;
83194;SDS011;73090;49.282;11.402;2024-01-10T18:39:55;18.85;;;11.00;;
83194;SDS011;73090;49.282;11.402;2024-01-10T18:43:57;25.83;;;13.10;;
83194;SDS011;73090;49.282;11.402;2024-01-10T18:47:59;20.60;;;13.45;;
83194;SDS011;73090;49.282;11.402;2024-01-10T18:52:01;21.27;;;10.30;;
83194;SDS011;73090;49.282;11.402;2024-01-10T18:56:03;21.92;;;14.05;;
83194;SDS011;73090;49.282;11.402;2024-01-10T19:00:05;23.65;;;11.55;;
83194;SDS011;73090;49.282;11.402;2024-01-10T19:04:07;21.08;;;13.30;;
83194;SDS011;73090;49.282;11.402;2024-01-10T19:08:09;28.60;;;10.73;;
83194;SDS011;73090;49.282;11.402;2024-01-10T19:12:12;22.48;;;12.88;;
83194;SDS011;73090;49.282;11.402;2024-01-10T19:16:14;22.10;;;11.77;;
83194;SDS011;73090;49.282;11.402;2024-01-10T19:20:15;26.55;;;10.10;;
83194;SDS011;73090;49.282;11.402;2024-01-10T19:24:17;22.52;;;12.73;;
83194;SDS011;73090;49.282;11.402;2024-01-10T19:28:19;23.15;;;13.02;;
83194;SDS011;73090;49.282;11.402;2024-01-10T19:32:21;23.33;;;14.73;;
83194;SDS011;73090;49.282;11.402;2024-01-10T19:36:23;30.77;;;13.43;;
83194;SDS011;73090;49.282;11.402;2024-01-10T19:40:28;29.45;;;13.05;;
83194;SDS011;73090;49.282;11.402;2024-01-10T19:44:30;32.08;;;15.05;;
83194;SDS011;73090;49.282;11.402;2024-01-10T19:48:32;28.95;;;13.48;;
83194;SDS011;73090;49.282;11.402;2024-01-10T19:52:36;23.23;;;13.55;;
83194;SDS011;73090;49.282;11.402;2024-01-10T19:56:38;26.05;;;13.32;;
83194;SDS011;73090;49.282;11.402;2024-01-10T20:00:40;29.77;;;13.98;;
83194;SDS011;73090;49.282;11.402;2024-01-10T20:04:42;29.58;;;13.70;;
83194;SDS011;73090;49.282;11.402;2024-01-10T20:08:44;33.20;;;18.05;;
83194;SDS011;73090;49.282;11.402;2024-01-10T20:12:46;29.20;;;13.77;;
83194;SDS011;73090;49.282;11.402;2024-01-10T20:16:48;26.23;;;12.65;;
83194;SDS011;73090;49.282;11.402;2024-01-10T20:20:50;29.98;;;14.75;;
83194;SDS011;73090;49.282;11.402;2024-01-10T20:24:52;22.50;;;12.73;;
83194;SDS011;73090;49.282;11.402;2024-01-10T20:28:54;23.90;;;14.10;;
83194;SDS011;73090;49.282;11.402;2024-01-10T20:32:55;29.83;;;13.13;;
83194;SDS011;73090;49.282;11.402;2024-01-10T20:36:59;22.60;;;13.25;;
83194;SDS011;73090;49.282;11.402;2024-01-10T20:41:00;23.30;;;11.90;;
83194;SDS011;73090;49.282;11.402;2024-01-10T20:45:03;19.58;;;11.68;;
83194;SDS011;73090;49.282;11.402;2024-01-10T20:49:06;20.35;;;10.02;;
83194;SDS011;73090;49.282;11.402;2024-01-10T20:53:07;23.85;;;12.88;;
83194;SDS011;73090;49.282;11.402;2024-01-10T20:57:09;22.17;;;13.35;;
83194;SDS011;73090;49.282;11.402;2024-01-10T21:01:11;23.88;;;14.20;;
83194;SDS011;73090;49.282;11.402;2024-01-10T21:05:13;26.80;;;13.73;;
83194;SDS011;73090;49.282;11.402;2024-01-10T21:09:15;26.48;;;11.73;;
83194;SDS011;73090;49.282;11.402;2024-01-10T21:13:16;20.52;;;10.25;;
83194;SDS011;73090;49.282;11.402;2024-01-10T21:17:18;24.80;;;13.20;;
83194;SDS011;73090;49.282;11.402;2024-01-10T21:21:21;22.75;;;12.32;;
83194;SDS011;73090;49.282;11.402;2024-01-10T21:25:23;36.42;;;13.30;;
83194;SDS011;73090;49.282;11.402;2024-01-10T21:29:24;26.88;;;14.43;;
83194;SDS011;73090;49.282;11.402;2024-01-10T21:33:26;24.13;;;12.60;;
83194;SDS011;73090;49.282;11.402;2024-01-10T21:37:28;24.65;;;14.30;;
83194;SDS011;73090;49.282;11.402;2024-01-10T21:41:30;26.05;;;9.73;;
83194;SDS011;73090;49.282;11.402;2024-01-10T21:45:31;21.73;;;12.57;;
83194;SDS011;73090;49.282;11.402;2024-01-10T21:49:34;25.13;;;13.13;;
83194;SDS011;73090;49.282;11.402;2024-01-10T21:53:36;28.80;;;12.50;;
83194;SDS011;73090;49.282;11.402;2024-01-10T21:57:40;26.35;;;12.40;;
83194;SDS011;73090;49.282;11.402;2024-01-10T22:01:42;72.43;;;33.22;;
83194;SDS011;73090;49.282;11.402;2024-01-10T22:05:43;47.47;;;22.40;;
83194;SDS011;73090;49.282;11.402;2024-01-10T22:09:45;20.52;;;10.75;;
83194;SDS011;73090;49.282;11.402;2024-01-10T22:13:47;21.90;;;10.40;;
83194;SDS011;73090;49.282;11.402;2024-01-10T22:17:49;19.83;;;11.88;;
83194;SDS011;73090;49.282;11.402;2024-01-10T22:21:50;19.65;;;11.25;;
83194;SDS011;73090;49.282;11.402;2024-01-10T22:25:52;21.10;;;11.70;;
83194;SDS011;73090;49.282;11.402;2024-01-10T22:29:56;26.52;;;13.40;;
83194;SDS011;73090;49.282;11.402;2024-01-10T22:33:58;26.60;;;11.43;;
83194;SDS011;73090;49.282;11.402;2024-01-10T22:38:00;27.02;;;11.13;;
83194;SDS011;73090;49.282;11.402;2024-01-10T22:42:01;16.63;;;10.15;;
83194;SDS011;73090;49.282;11.402;2024-01-10T22:46:03;21.70;;;8.75;;
83194;SDS011;73090;49.282;11.402;2024-01-10T22:50:06;21.42;;;11.10;;
83194;SDS011;73090;49.282;11.402;2024-01-10T22:54:11;17.17;;;10.88;;
83194;SDS011;73090;49.282;11.402;2024-01-10T22:58:13;22.00;;;9.93;;
83194;SDS011;73090;49.282;11.402;2024-01-10T23:02:19;24.95;;;11.95;;
83194;SDS011;73090;49.282;11.402;2024-01-10T23:06:20;21.17;;;11.23;;
83194;SDS011;73090;49.282;11.402;2024-01-10T23:10:22;23.10;;;12.70;;
83194;SDS011;73090;49.282;11.402;2024-01-10T23:14:24;27.60;;;13.57;;
83194;SDS011;73090;49.282;11.402;2024-01-10T23:18:25;21.25;;;11.35;;
83194;SDS011;73090;49.282;11.402;2024-01-10T23:22:27;24.95;;;12.93;;
83194;SDS011;73090;49.282;11.402;2024-01-10T23:26:29;24.10;;;14.70;;
83194;SDS011;73090;49.282;11.402;2024-01-10T23:30:32;24.25;;;10.93;;
83194;SDS011;73090;49.282;11.402;2024-01-10T23:34:34;26.08;;;12.93;;
83194;SDS011;73090;49.282;11.402;2024-01-10T23:38:39;18.15;;;8.85;;
83194;SDS011;73090;49.282;11.402;2024-01-10T23:42:42;21.60;;;11.65;;
83194;SDS011;73090;49.282;11.402;2024-01-10T23:46:43;25.58;;;12.32;;
83194;SDS011;73090;49.282;11.402;2024-01-10T23:50:45;21.20;;;11.77;;
83194;SDS011;73090;49.282;11.402;2024-01-10T23:54:46;18.25;;;10.38;;